Time;durP1;ratioP1;P1;durP2;ratioP2;P2;SDS_P1;SDS_P2;PMS_P1;PMS_P2;Temp;Humidity;BMP_temperature;BMP_pressure;BME280_temperature;BME280_humidity;BME280_pressure;Samples;Min_cycle;Max_cycle;Signal;HPM_P1;HPM_P2
2022/07/01 00:00:28;;;;;;;;;;;26.50;62.00;;;;;;5055771;28;19955;-71
2022/07/01 00:02:53;;;;;;;;;;;26.40;61.80;;;;;;5055662;28;19913;-71
2022/07/01 00:05:19;;;;;;;;;;;26.40;61.20;;;;;;5055701;28;19913;-71
2022/07/01 00:07:45;;;;;;;;;;;26.40;61.40;;;;;;5055854;28;19948;-70
2022/07/01 00:10:11;;;;;;;;;;;26.30;61.10;;;;;;5055642;28;19921;-70
2022/07/01 00:12:37;;;;;;;;;;;26.30;61.40;;;;;;5055679;28;20398;-63
2022/07/01 00:15:03;;;;;;;;;;;26.30;61.10;;;;;;5055508;28;19916;-72
2022/07/01 00:17:29;;;;;;;;;;;26.40;61.20;;;;;;5055663;28;20315;-74
2022/07/01 00:19:55;;;;;;;;;;;26.30;61.00;;;;;;5055216;28;19917;-72
2022/07/01 00:22:21;;;;;;;;;;;26.50;61.40;;;;;;5055509;28;19912;-70
2022/07/01 00:24:48;;;;;;;;;;;26.60;60.70;;;;;;5055415;28;19912;-73
2022/07/01 00:27:14;;;;;;;;;;;26.60;60.90;;;;;;5055288;28;19913;-68
2022/07/01 00:29:40;;;;;;;;;;;26.50;60.90;;;;;;5055279;28;19920;-71
2022/07/01 00:32:06;;;;;;;;;;;26.60;60.70;;;;;;5055098;28;19912;-71
2022/07/01 00:34:31;;;;;;;;;;;26.70;60.20;;;;;;5055158;28;19916;-72
2022/07/01 00:36:57;;;;;;;;;;;26.70;60.00;;;;;;5054810;28;19909;-69
2022/07/01 00:39:22;;;;;;;;;;;26.80;59.80;;;;;;5055014;28;19932;-71
2022/07/01 00:41:48;;;;;;;;;;;26.80;59.70;;;;;;5054949;28;19918;-70
2022/07/01 00:44:17;;;;;;;;;;;26.80;59.70;;;;;;5054981;28;20271;-68
2022/07/01 00:46:43;;;;;;;;;;;26.80;59.60;;;;;;5054762;28;19924;-72
2022/07/01 00:49:08;;;;;;;;;;;26.80;59.60;;;;;;5054700;28;19921;-72
2022/07/01 00:51:35;;;;;;;;;;;26.80;59.70;;;;;;5054328;28;19998;-73
2022/07/01 00:54:00;;;;;;;;;;;26.90;59.70;;;;;;5054823;28;19958;-72
2022/07/01 00:56:26;;;;;;;;;;;26.90;59.40;;;;;;5054664;28;19975;-73
2022/07/01 00:58:52;;;;;;;;;;;26.90;59.10;;;;;;5054751;28;20030;-67
2022/07/01 01:01:17;;;;;;;;;;;26.90;59.30;;;;;;5054485;28;19932;-70
2022/07/01 01:03:43;;;;;;;;;;;26.70;59.70;;;;;;5036546;28;19975;-71
2022/07/01 01:06:09;;;;;;;;;;;26.40;60.60;;;;;;5054411;28;19919;-72
2022/07/01 01:08:35;;;;;;;;;;;26.20;61.40;;;;;;5054475;28;19910;-69
2022/07/01 01:11:00;;;;;;;;;;;26.20;61.50;;;;;;5054484;28;20327;-69
2022/07/01 01:13:26;;;;;;;;;;;26.20;61.70;;;;;;5054320;28;20383;-68
2022/07/01 01:15:51;;;;;;;;;;;26.20;61.70;;;;;;5054444;28;19913;-72
2022/07/01 01:18:17;;;;;;;;;;;26.20;61.60;;;;;;5054298;28;20019;-70
2022/07/01 01:20:42;;;;;;;;;;;26.10;62.10;;;;;;5054397;28;19920;-69
2022/07/01 01:23:08;;;;;;;;;;;26.10;62.50;;;;;;5054271;28;19913;-72
2022/07/01 01:25:34;;;;;;;;;;;26.00;62.80;;;;;;5054690;28;19909;-73
2022/07/01 01:28:00;;;;;;;;;;;26.00;62.30;;;;;;5054316;28;19920;-71
2022/07/01 01:30:26;;;;;;;;;;;26.10;61.90;;;;;;5054001;28;20011;-70
2022/07/01 01:32:52;;;;;;;;;;;26.30;61.40;;;;;;5054587;28;20420;-71
2022/07/01 01:35:18;;;;;;;;;;;26.40;61.00;;;;;;5057550;28;19908;-67
2022/07/01 01:37:44;;;;;;;;;;;26.50;60.20;;;;;;5068641;28;19913;-71
2022/07/01 01:40:10;;;;;;;;;;;26.40;60.70;;;;;;5068581;28;19924;-70
2022/07/01 01:42:35;;;;;;;;;;;26.20;61.30;;;;;;5064950;28;19920;-72
2022/07/01 01:45:02;;;;;;;;;;;26.10;61.60;;;;;;5066033;28;19913;-68
2022/07/01 01:47:27;;;;;;;;;;;26.20;61.60;;;;;;5067045;28;20371;-67
2022/07/01 01:49:53;;;;;;;;;;;26.20;61.50;;;;;;5057189;28;19924;-68
2022/07/01 01:52:18;;;;;;;;;;;26.00;61.90;;;;;;5053870;28;20007;-72
2022/07/01 01:54:44;;;;;;;;;;;26.00;62.20;;;;;;5053791;28;19916;-69
2022/07/01 01:57:09;;;;;;;;;;;26.10;62.20;;;;;;5053627;28;20019;-67
2022/07/01 01:59:35;;;;;;;;;;;26.00;62.70;;;;;;5035575;28;20372;-71
2022/07/01 02:02:00;;;;;;;;;;;26.00;62.60;;;;;;5053470;28;19916;-65
2022/07/01 02:04:26;;;;;;;;;;;25.80;63.30;;;;;;5052332;28;19909;-67
2022/07/01 02:06:52;;;;;;;;;;;25.80;64.00;;;;;;5053383;28;20372;-64
2022/07/01 02:09:18;;;;;;;;;;;25.70;63.80;;;;;;5053293;28;19917;-68
2022/07/01 02:11:44;;;;;;;;;;;25.70;63.90;;;;;;5053260;28;19909;-70
2022/07/01 02:14:09;;;;;;;;;;;25.70;64.10;;;;;;5053283;28;20377;-71
2022/07/01 02:16:35;;;;;;;;;;;25.70;64.40;;;;;;5052949;28;20343;-65
2022/07/01 02:19:00;;;;;;;;;;;25.60;64.60;;;;;;5053181;28;19999;-69
2022/07/01 02:21:26;;;;;;;;;;;25.60;65.10;;;;;;5053110;28;20023;-72
2022/07/01 02:23:52;;;;;;;;;;;25.60;65.00;;;;;;5053148;28;19909;-72
2022/07/01 02:26:18;;;;;;;;;;;25.50;65.10;;;;;;5052998;28;20353;-71
2022/07/01 02:28:44;;;;;;;;;;;25.50;65.00;;;;;;5052979;28;19909;-72
2022/07/01 02:31:09;;;;;;;;;;;25.60;64.90;;;;;;5052809;28;20414;-69
2022/07/01 02:33:35;;;;;;;;;;;25.50;64.80;;;;;;5052861;28;20226;-71
2022/07/01 02:36:00;;;;;;;;;;;25.50;64.90;;;;;;5053037;28;19909;-63
2022/07/01 02:38:26;;;;;;;;;;;25.50;64.90;;;;;;5052798;28;19913;-69
2022/07/01 02:40:51;;;;;;;;;;;25.60;64.80;;;;;;5052717;28;19966;-69
2022/07/01 02:43:18;;;;;;;;;;;25.60;64.70;;;;;;5052500;28;20337;-69
2022/07/01 02:45:43;;;;;;;;;;;25.60;64.30;;;;;;5052341;28;20418;-66
2022/07/01 02:48:09;;;;;;;;;;;25.60;64.30;;;;;;5052651;28;19963;-70
2022/07/01 02:50:35;;;;;;;;;;;25.80;63.90;;;;;;5052556;28;19917;-65
2022/07/01 02:53:00;;;;;;;;;;;25.90;63.20;;;;;;5052287;28;19913;-65
2022/07/01 02:55:26;;;;;;;;;;;26.10;63.00;;;;;;5052448;28;20367;-67
2022/07/01 02:57:52;;;;;;;;;;;26.10;61.10;;;;;;5052325;28;20427;-70
2022/07/01 03:00:18;;;;;;;;;;;26.00;61.80;;;;;;5052337;28;19909;-68
2022/07/01 03:02:44;;;;;;;;;;;25.80;62.30;;;;;;5052389;28;19915;-68
2022/07/01 03:05:10;;;;;;;;;;;25.90;62.50;;;;;;5052312;28;19913;-68
2022/07/01 03:07:36;;;;;;;;;;;26.00;62.00;;;;;;5052267;28;19966;-71
2022/07/01 03:10:05;;;;;;;;;;;26.20;61.10;;;;;;5052128;28;19917;-71
2022/07/01 03:12:34;;;;;;;;;;;26.20;60.60;;;;;;5052304;28;19912;-70
2022/07/01 03:15:03;;;;;;;;;;;26.00;59.80;;;;;;5051876;28;19915;-71
2022/07/01 03:17:30;;;;;;;;;;;25.90;61.30;;;;;;5052237;28;20418;-69
2022/07/01 03:19:56;;;;;;;;;;;25.80;60.50;;;;;;5051963;28;19913;-70
2022/07/01 03:22:22;;;;;;;;;;;25.60;60.80;;;;;;5052156;28;19909;-68
2022/07/01 03:24:48;;;;;;;;;;;25.60;61.20;;;;;;5052165;28;20383;-71
2022/07/01 03:27:14;;;;;;;;;;;25.40;61.40;;;;;;5051985;28;19957;-73
2022/07/01 03:29:40;;;;;;;;;;;25.50;60.50;;;;;;5052102;28;19921;-71
2022/07/01 03:32:06;;;;;;;;;;;25.40;60.30;;;;;;5052082;28;19920;-65
2022/07/01 03:34:31;;;;;;;;;;;25.40;59.90;;;;;;5052026;28;20344;-74
2022/07/01 03:36:57;;;;;;;;;;;25.70;60.20;;;;;;5051718;28;19960;-74
2022/07/01 03:39:22;;;;;;;;;;;25.60;59.00;;;;;;5051765;28;19924;-71
2022/07/01 03:41:48;;;;;;;;;;;25.60;59.00;;;;;;5051878;28;19963;-70
2022/07/01 03:44:13;;;;;;;;;;;25.50;59.00;;;;;;5033953;28;19916;-70
2022/07/01 03:46:39;;;;;;;;;;;25.50;59.70;;;;;;5051676;28;19913;-71
2022/07/01 03:49:05;;;;;;;;;;;25.50;59.40;;;;;;5051809;28;19971;-72
2022/07/01 03:51:30;;;;;;;;;;;25.50;59.50;;;;;;5052267;28;19909;-73
2022/07/01 03:56:40;;;;;;;;;;;25.40;58.90;;;;;;5038968;28;20465;-73
2022/07/01 03:59:05;;;;;;;;;;;25.30;59.20;;;;;;5033951;28;19991;-73
2022/07/01 04:01:31;;;;;;;;;;;25.20;59.40;;;;;;5051733;28;19909;-71
2022/07/01 04:03:57;;;;;;;;;;;25.40;59.30;;;;;;5051886;28;20391;-71
2022/07/01 04:06:23;;;;;;;;;;;25.30;58.70;;;;;;5051646;28;19913;-72
2022/07/01 04:08:48;;;;;;;;;;;25.20;58.30;;;;;;5051719;28;20479;-72
2022/07/01 04:11:15;;;;;;;;;;;25.30;58.20;;;;;;5051544;28;19999;-72
2022/07/01 04:13:40;;;;;;;;;;;25.30;59.10;;;;;;5051651;28;19974;-73
2022/07/01 04:16:06;;;;;;;;;;;25.40;58.00;;;;;;5051908;28;19908;-72
2022/07/01 04:18:32;;;;;;;;;;;25.40;57.60;;;;;;5051708;28;19916;-71
2022/07/01 04:23:42;;;;;;;;;;;25.50;57.90;;;;;;5051741;28;20307;-72
2022/07/01 04:26:07;;;;;;;;;;;25.50;57.60;;;;;;5051971;28;19916;-71
2022/07/01 04:28:33;;;;;;;;;;;25.60;57.30;;;;;;5055077;28;19912;-69
2022/07/01 04:30:59;;;;;;;;;;;25.60;57.40;;;;;;5055506;28;19963;-70
2022/07/01 04:33:25;;;;;;;;;;;25.50;57.40;;;;;;5055171;28;19959;-71
2022/07/01 16:30:45;;;;;;;;;;;29.60;63.50;;;;;;5033748;28;20372;-65
2022/07/01 16:33:11;;;;;;;;;;;29.60;63.90;;;;;;5035336;28;19917;-64
2022/07/01 16:35:49;;;;;;;;;;;29.60;64.30;;;;;;5035274;28;19909;-65
2022/07/01 16:38:21;;;;;;;;;;;29.40;64.60;;;;;;5035400;28;19909;-61
2022/07/01 16:40:49;;;;;;;;;;;29.30;65.00;;;;;;5035205;28;20091;-64
2022/07/01 16:43:18;;;;;;;;;;;29.40;64.70;;;;;;5035278;28;19909;-61
2022/07/01 16:45:48;;;;;;;;;;;29.50;63.70;;;;;;5034943;28;20542;-61
2022/07/01 16:48:13;;;;;;;;;;;29.50;63.30;;;;;;5035071;28;19909;-65
2022/07/01 16:50:47;;;;;;;;;;;29.60;62.50;;;;;;5034977;28;19916;-62
2022/07/01 16:53:14;;;;;;;;;;;29.60;62.40;;;;;;5035124;28;19917;-64
2022/07/01 16:55:44;;;;;;;;;;;29.50;63.10;;;;;;5035057;28;20258;-61
2022/07/01 16:58:10;;;;;;;;;;;29.30;63.80;;;;;;5034704;28;19916;-61
2022/07/01 17:00:36;;;;;;;;;;;29.30;64.10;;;;;;5035244;28;20268;-63
2022/07/01 17:03:02;;;;;;;;;;;29.40;63.80;;;;;;5034740;28;19912;-63
2022/07/01 17:05:32;;;;;;;;;;;29.50;63.60;;;;;;5034700;28;19920;-61
2022/07/01 17:07:58;;;;;;;;;;;29.40;63.30;;;;;;5034768;28;19910;-61
2022/07/01 17:10:25;;;;;;;;;;;29.40;63.60;;;;;;5034676;28;19933;-64
2022/07/01 17:12:51;;;;;;;;;;;29.40;63.80;;;;;;5034460;28;19964;-59
2022/07/01 17:15:17;;;;;;;;;;;29.40;63.80;;;;;;5034865;28;19905;-65
2022/07/01 17:17:43;;;;;;;;;;;29.40;63.50;;;;;;5034684;28;20277;-62
2022/07/01 17:20:10;;;;;;;;;;;29.30;64.10;;;;;;5034458;28;19913;-63
2022/07/01 17:22:43;;;;;;;;;;;29.40;64.50;;;;;;5034475;28;19935;-60
2022/07/01 17:25:11;;;;;;;;;;;29.30;64.60;;;;;;5034314;28;20387;-62
2022/07/01 17:28:08;;;;;;;;;;;29.30;64.60;;;;;;5034348;28;19963;-61
2022/07/01 17:30:42;;;;;;;;;;;29.20;64.80;;;;;;5002231;28;19948;-62
2022/07/01 17:33:09;;;;;;;;;;;29.10;65.00;;;;;;5014478;28;19913;-63
2022/07/01 17:35:35;;;;;;;;;;;29.20;65.20;;;;;;5014076;28;19945;-63
2022/07/01 17:38:02;;;;;;;;;;;29.20;65.20;;;;;;5014292;28;19916;-62
2022/07/01 17:40:30;;;;;;;;;;;29.20;65.10;;;;;;5014379;28;19917;-61
2022/07/01 17:42:57;;;;;;;;;;;29.20;64.90;;;;;;5014273;28;19910;-59
2022/07/01 17:45:23;;;;;;;;;;;29.30;65.00;;;;;;5014324;28;19917;-62
2022/07/01 17:47:49;;;;;;;;;;;29.20;64.60;;;;;;5014213;28;19909;-61
2022/07/01 17:50:17;;;;;;;;;;;29.20;64.60;;;;;;5013906;28;19921;-61
2022/07/01 17:52:43;;;;;;;;;;;29.10;64.40;;;;;;5014294;28;19932;-65
2022/07/01 17:55:10;;;;;;;;;;;29.10;64.30;;;;;;5014003;28;20372;-65
2022/07/01 17:57:36;;;;;;;;;;;29.10;64.30;;;;;;5014083;28;19917;-66
2022/07/01 18:00:04;;;;;;;;;;;29.10;64.10;;;;;;5013935;28;19970;-66
2022/07/01 18:02:30;;;;;;;;;;;29.10;63.80;;;;;;5013863;28;19913;-67
2022/07/01 18:04:56;;;;;;;;;;;29.10;63.50;;;;;;5013769;28;19913;-64
2022/07/01 18:07:22;;;;;;;;;;;29.20;63.20;;;;;;5013758;28;19914;-67
2022/07/01 18:09:48;;;;;;;;;;;29.20;62.30;;;;;;5013794;28;19924;-65
2022/07/01 18:12:32;;;;;;;;;;;29.20;62.60;;;;;;5013910;28;19953;-65
2022/07/01 18:15:00;;;;;;;;;;;29.10;62.00;;;;;;5013717;28;19928;-65
2022/07/01 18:17:32;;;;;;;;;;;29.10;62.80;;;;;;5013402;28;20008;-65
2022/07/01 18:20:02;;;;;;;;;;;29.10;62.80;;;;;;5013956;28;19913;-65
2022/07/01 18:22:33;;;;;;;;;;;29.20;62.50;;;;;;5013487;28;19913;-65
2022/07/01 18:25:00;;;;;;;;;;;29.20;62.10;;;;;;5013602;28;19943;-64
2022/07/01 18:27:26;;;;;;;;;;;29.10;61.90;;;;;;5013426;28;20280;-65
2022/07/01 18:29:56;;;;;;;;;;;29.20;62.00;;;;;;5038266;28;19928;-65
2022/07/01 18:32:29;;;;;;;;;;;29.20;61.80;;;;;;5052919;28;19913;-65
2022/07/01 18:34:59;;;;;;;;;;;29.10;61.60;;;;;;5053214;28;19954;-64
2022/07/01 18:37:27;;;;;;;;;;;29.10;61.90;;;;;;5052950;28;20331;-63
2022/07/01 18:39:53;;;;;;;;;;;29.00;61.80;;;;;;5053046;28;19909;-65
2022/07/01 18:42:18;;;;;;;;;;;29.00;62.00;;;;;;5052752;28;19909;-63
2022/07/01 18:44:44;;;;;;;;;;;29.00;61.50;;;;;;5052496;28;19919;-63
2022/07/01 18:47:09;;;;;;;;;;;29.00;61.60;;;;;;5052279;28;20007;-65
2022/07/01 18:49:35;;;;;;;;;;;29.00;61.20;;;;;;5052774;28;19916;-64
2022/07/01 18:52:01;;;;;;;;;;;29.00;61.60;;;;;;5052377;28;19968;-65
2022/07/01 18:54:27;;;;;;;;;;;29.10;61.50;;;;;;5052693;28;19919;-65
2022/07/01 18:56:54;;;;;;;;;;;29.10;61.60;;;;;;5034536;28;19952;-64
2022/07/01 18:59:22;;;;;;;;;;;29.00;61.10;;;;;;5052663;28;19909;-64
2022/07/01 19:01:47;;;;;;;;;;;28.80;61.30;;;;;;5052413;28;19924;-62
2022/07/01 19:04:13;;;;;;;;;;;28.70;61.80;;;;;;5052578;28;19909;-65
2022/07/01 19:06:38;;;;;;;;;;;28.70;61.70;;;;;;5052493;28;19909;-66
2022/07/01 19:09:04;;;;;;;;;;;28.80;62.50;;;;;;5052462;28;19916;-62
2022/07/01 19:11:29;;;;;;;;;;;28.90;61.20;;;;;;5052332;28;19920;-64
2022/07/01 19:13:55;;;;;;;;;;;29.00;60.80;;;;;;5052444;28;19909;-63
2022/07/01 19:16:20;;;;;;;;;;;28.90;61.60;;;;;;5052167;28;19968;-65
2022/07/01 19:18:46;;;;;;;;;;;28.80;61.90;;;;;;5052104;28;19967;-65
2022/07/01 19:21:11;;;;;;;;;;;28.70;62.50;;;;;;5052204;28;19909;-61
2022/07/01 19:23:37;;;;;;;;;;;28.60;61.80;;;;;;5052790;28;19924;-62
2022/07/01 19:26:03;;;;;;;;;;;28.60;63.20;;;;;;5051908;28;19909;-64
2022/07/01 19:28:29;;;;;;;;;;;28.70;62.30;;;;;;5051389;28;19963;-66
2022/07/01 19:30:54;;;;;;;;;;;28.90;61.60;;;;;;5051434;28;19917;-62
2022/07/01 19:33:20;;;;;;;;;;;28.80;61.80;;;;;;5052082;28;19913;-66
2022/07/01 19:35:46;;;;;;;;;;;28.80;61.60;;;;;;5051959;28;19932;-66
2022/07/01 19:38:11;;;;;;;;;;;28.70;61.70;;;;;;5051667;28;19913;-67
2022/07/01 19:40:37;;;;;;;;;;;28.80;62.00;;;;;;5051095;28;19960;-66
2022/07/01 19:43:03;;;;;;;;;;;28.80;62.70;;;;;;5051508;28;19992;-67
2022/07/01 19:45:28;;;;;;;;;;;28.80;61.80;;;;;;5051871;28;19991;-66
2022/07/01 19:47:54;;;;;;;;;;;28.70;61.90;;;;;;5051936;28;19913;-62
2022/07/01 19:50:20;;;;;;;;;;;28.50;62.50;;;;;;5051744;28;19921;-61
2022/07/01 19:52:45;;;;;;;;;;;28.50;62.50;;;;;;5047188;28;19909;-59
2022/07/01 19:55:11;;;;;;;;;;;28.40;63.00;;;;;;5051464;28;20288;-61
2022/07/01 19:57:36;;;;;;;;;;;28.20;63.50;;;;;;5050998;28;20440;-59
2022/07/01 20:00:03;;;;;;;;;;;28.10;63.80;;;;;;5036853;28;19944;-60
2022/07/01 20:02:29;;;;;;;;;;;28.20;63.20;;;;;;5048619;28;19915;-65
2022/07/01 20:04:55;;;;;;;;;;;28.20;63.30;;;;;;5048735;28;20284;-62
2022/07/01 20:07:20;;;;;;;;;;;28.10;63.90;;;;;;5050059;28;19913;-59
2022/07/01 20:09:46;;;;;;;;;;;28.10;63.80;;;;;;5046956;28;20318;-60
2022/07/01 20:12:11;;;;;;;;;;;27.90;64.30;;;;;;5038638;28;19947;-60
2022/07/01 20:14:37;;;;;;;;;;;27.90;64.10;;;;;;5035503;28;19917;-60
2022/07/01 20:17:03;;;;;;;;;;;28.00;64.30;;;;;;5050059;28;19915;-62
2022/07/01 20:19:29;;;;;;;;;;;27.90;64.60;;;;;;5055140;28;20271;-61
2022/07/01 20:21:55;;;;;;;;;;;27.80;64.60;;;;;;5042259;28;20402;-58
2022/07/01 20:24:25;;;;;;;;;;;27.80;65.10;;;;;;5053972;28;20003;-61
2022/07/01 20:26:53;;;;;;;;;;;27.90;64.40;;;;;;5054729;28;19952;-62
2022/07/01 20:29:19;;;;;;;;;;;27.80;64.60;;;;;;5040595;28;19925;-61
2022/07/01 20:31:45;;;;;;;;;;;27.80;65.20;;;;;;5051039;28;20023;-59
2022/07/01 20:34:10;;;;;;;;;;;27.80;64.50;;;;;;5044470;28;19921;-62
2022/07/01 20:36:36;;;;;;;;;;;27.70;65.30;;;;;;5035672;28;19956;-62
2022/07/01 20:39:02;;;;;;;;;;;27.60;64.50;;;;;;5054318;28;20016;-59
2022/07/01 20:41:27;;;;;;;;;;;27.50;64.50;;;;;;5054545;28;19931;-59
2022/07/01 20:43:53;;;;;;;;;;;27.60;58.40;;;;;;5055476;28;19937;-59
2022/07/01 20:46:18;;;;;;;;;;;27.50;63.20;;;;;;5054760;28;19919;-61
2022/07/01 20:48:44;;;;;;;;;;;27.50;59.30;;;;;;5054730;28;19995;-59
2022/07/01 20:51:10;;;;;;;;;;;27.60;58.00;;;;;;5054926;28;19920;-60
2022/07/01 20:53:36;;;;;;;;;;;27.60;59.20;;;;;;5054802;28;19959;-61
2022/07/01 20:56:01;;;;;;;;;;;27.60;63.40;;;;;;5054710;28;19909;-60
2022/07/01 20:58:27;;;;;;;;;;;27.60;61.60;;;;;;5054663;28;20310;-61
2022/07/01 21:00:52;;;;;;;;;;;27.60;64.20;;;;;;5054720;28;19919;-62
2022/07/01 21:03:20;;;;;;;;;;;27.60;64.40;;;;;;5055059;28;19908;-62
2022/07/01 21:05:46;;;;;;;;;;;27.60;63.80;;;;;;5054596;28;19928;-61
2022/07/01 21:08:11;;;;;;;;;;;27.50;62.30;;;;;;5053908;28;19909;-58
2022/07/01 21:10:37;;;;;;;;;;;27.50;64.60;;;;;;5054394;28;20337;-60
2022/07/01 21:13:02;;;;;;;;;;;27.50;64.70;;;;;;5054513;28;19909;-62
2022/07/01 21:15:28;;;;;;;;;;;27.50;64.90;;;;;;5054299;28;19924;-59
2022/07/01 21:17:54;;;;;;;;;;;27.40;64.10;;;;;;5054439;28;19909;-63
2022/07/01 21:20:19;;;;;;;;;;;27.40;64.30;;;;;;5054193;28;19921;-62
2022/07/01 21:22:45;;;;;;;;;;;27.30;64.00;;;;;;5054236;28;19998;-59
2022/07/01 21:25:10;;;;;;;;;;;27.30;64.50;;;;;;5054101;28;20020;-62
2022/07/01 21:27:36;;;;;;;;;;;27.30;64.00;;;;;;5054071;28;20346;-63
2022/07/01 21:30:03;;;;;;;;;;;27.40;63.80;;;;;;5053963;28;20478;-63
2022/07/01 21:32:28;;;;;;;;;;;27.20;63.80;;;;;;5054061;28;19939;-61
2022/07/01 21:34:54;;;;;;;;;;;27.30;63.50;;;;;;5054145;28;20361;-61
2022/07/01 21:37:19;;;;;;;;;;;27.20;64.20;;;;;;5053955;28;19959;-62
2022/07/01 21:39:46;;;;;;;;;;;27.20;64.10;;;;;;5054179;28;20348;-62
2022/07/01 21:42:12;;;;;;;;;;;27.20;64.30;;;;;;5054046;28;20411;-61
2022/07/01 21:44:39;;;;;;;;;;;27.30;64.40;;;;;;5053877;28;19964;-59
2022/07/01 21:47:06;;;;;;;;;;;27.20;63.90;;;;;;5053982;28;19920;-60
2022/07/01 21:49:31;;;;;;;;;;;27.20;64.30;;;;;;5053898;28;19923;-60
2022/07/01 21:51:58;;;;;;;;;;;27.20;64.00;;;;;;5053542;28;20011;-60
2022/07/01 21:54:29;;;;;;;;;;;27.20;64.10;;;;;;5053810;28;19916;-60
2022/07/01 21:56:55;;;;;;;;;;;27.30;64.10;;;;;;5053828;28;19935;-60
2022/07/01 21:59:21;;;;;;;;;;;27.30;64.00;;;;;;5053718;28;19920;-59
2022/07/01 22:01:48;;;;;;;;;;;27.30;63.80;;;;;;5053656;28;19990;-59
2022/07/01 22:04:13;;;;;;;;;;;27.40;62.20;;;;;;5053605;28;19913;-60
2022/07/01 22:06:52;;;;;;;;;;;27.40;61.30;;;;;;5053462;28;19999;-58
2022/07/01 22:09:20;;;;;;;;;;;27.40;61.50;;;;;;5053141;28;20454;-63
2022/07/01 22:11:48;;;;;;;;;;;27.50;61.10;;;;;;5053419;28;19916;-64
2022/07/01 22:14:18;;;;;;;;;;;27.50;60.20;;;;;;5053577;28;19924;-62
2022/07/01 22:16:44;;;;;;;;;;;27.40;60.90;;;;;;5053301;28;20003;-64
2022/07/01 22:19:10;;;;;;;;;;;27.30;60.70;;;;;;5053013;28;19996;-64
2022/07/01 22:21:37;;;;;;;;;;;27.40;61.10;;;;;;5052318;28;20353;-62
2022/07/01 22:24:04;;;;;;;;;;;27.40;59.30;;;;;;5053292;28;19916;-62
2022/07/01 22:26:29;;;;;;;;;;;27.50;59.30;;;;;;5053159;28;19951;-63
2022/07/01 22:28:57;;;;;;;;;;;27.50;59.00;;;;;;5052778;28;20325;-62
2022/07/01 22:31:23;;;;;;;;;;;27.50;58.50;;;;;;5053006;28;19925;-64
2022/07/01 22:33:50;;;;;;;;;;;27.60;58.50;;;;;;5053029;28;19916;-64
2022/07/01 22:36:16;;;;;;;;;;;27.60;58.30;;;;;;5056379;28;20019;-65
2022/07/01 22:38:42;;;;;;;;;;;27.70;58.30;;;;;;5058673;28;20352;-64
2022/07/01 22:41:08;;;;;;;;;;;27.60;58.20;;;;;;5041270;28;20225;-64
2022/07/01 22:43:35;;;;;;;;;;;27.60;58.20;;;;;;5057272;28;19913;-62
2022/07/01 22:46:00;;;;;;;;;;;27.60;58.30;;;;;;5053188;28;19913;-63
2022/07/01 22:48:52;;;;;;;;;;;27.50;58.90;;;;;;5053085;28;19920;-63
2022/07/01 22:51:25;;;;;;;;;;;27.50;58.30;;;;;;5015044;28;20383;-64
2022/07/01 22:53:55;;;;;;;;;;;27.50;58.30;;;;;;5039676;28;19935;-63
2022/07/01 22:56:21;;;;;;;;;;;27.50;58.20;;;;;;5052722;28;19995;-64
2022/07/01 22:58:47;;;;;;;;;;;27.50;58.20;;;;;;5052587;28;19908;-62
2022/07/01 23:01:13;;;;;;;;;;;27.60;57.80;;;;;;5052584;28;19909;-63
2022/07/01 23:03:40;;;;;;;;;;;27.60;57.80;;;;;;5052423;28;19912;-62
2022/07/01 23:06:08;;;;;;;;;;;27.50;58.20;;;;;;5052733;28;19909;-62
2022/07/01 23:08:33;;;;;;;;;;;27.50;58.20;;;;;;5052483;28;19913;-62
2022/07/01 23:11:04;;;;;;;;;;;27.50;58.00;;;;;;5052308;28;20375;-62
2022/07/01 23:13:35;;;;;;;;;;;27.40;58.00;;;;;;5052192;28;19924;-63
2022/07/01 23:18:46;;;;;;;;;;;27.50;58.10;;;;;;5052502;28;19916;-64
2022/07/01 23:21:13;;;;;;;;;;;27.40;58.10;;;;;;5052269;28;19928;-57
2022/07/01 23:23:39;;;;;;;;;;;27.50;58.00;;;;;;5052281;28;20249;-63
2022/07/01 23:26:05;;;;;;;;;;;27.60;58.10;;;;;;5052141;28;20391;-63
2022/07/01 23:28:30;;;;;;;;;;;27.50;58.00;;;;;;5052258;28;19999;-61
2022/07/01 23:30:57;;;;;;;;;;;27.60;58.10;;;;;;5051839;28;20012;-58
2022/07/01 23:33:23;;;;;;;;;;;27.50;58.10;;;;;;5051152;28;19915;-62
2022/07/01 23:35:51;;;;;;;;;;;27.50;58.20;;;;;;5051683;28;20348;-58
2022/07/01 23:38:16;;;;;;;;;;;27.50;58.10;;;;;;5051533;28;20012;-61
2022/07/01 23:40:42;;;;;;;;;;;27.50;58.20;;;;;;5052002;28;20031;-64
2022/07/01 23:43:08;;;;;;;;;;;27.50;58.10;;;;;;5051944;28;19913;-64
2022/07/01 23:45:37;;;;;;;;;;;27.50;58.20;;;;;;5051679;28;20280;-64
2022/07/01 23:48:06;;;;;;;;;;;27.50;58.50;;;;;;5051271;28;19912;-62
2022/07/01 23:50:31;;;;;;;;;;;27.50;58.70;;;;;;5051412;28;20372;-62
2022/07/01 23:52:57;;;;;;;;;;;27.50;58.80;;;;;;5051565;28;19954;-63
2022/07/01 23:55:22;;;;;;;;;;;27.50;58.70;;;;;;5051720;28;19908;-62
2022/07/01 23:57:48;;;;;;;;;;;27.50;58.50;;;;;;5051888;28;19997;-62
